Time;durP1;ratioP1;P1;durP2;ratioP2;P2;SDS_P1;SDS_P2;PMS_P1;PMS_P2;Temp;Humidity;BMP_temperature;BMP_pressure;BME280_temperature;BME280_humidity;BME280_pressure;Samples;Min_cycle;Max_cycle;Signal;HPM_P1;HPM_P2
2023/09/19 00:00:41;;;;;;;4.30;2.07;;;;;;;18.06;100.00;101757.88;2081160;28;20789;-67
2023/09/19 00:01:45;;;;;;;4.17;1.90;;;;;;;17.51;100.00;101664.13;2080170;28;20189;-67
2023/09/19 00:02:57;;;;;;;4.80;1.93;;;;;;;17.99;100.00;101770.13;2087803;28;20191;-67
2023/09/19 00:03:58;;;;;;;2.77;2.20;;;;;;;18.03;100.00;101742.75;2080741;28;20458;-67
2023/09/19 00:04:58;;;;;;;6.40;2.40;;;;;;;18.03;100.00;101746.31;2087182;28;20490;-67
2023/09/19 00:05:59;;;;;;;3.20;2.10;;;;;;;17.83;100.00;101717.03;2083729;28;20448;-67
2023/09/19 00:07:02;;;;;;;3.30;2.20;;;;;;;17.99;100.00;101748.47;2080611;28;20191;-67
2023/09/19 00:08:04;;;;;;;3.03;1.90;;;;;;;17.98;100.00;101737.72;2083632;28;20452;-68
2023/09/19 00:09:05;;;;;;;3.00;2.00;;;;;;;17.99;100.00;101737.25;2085809;28;20529;-67
2023/09/19 00:10:09;;;;;;;3.10;2.27;;;;;;;17.99;100.00;101737.25;2080649;28;20473;-67
2023/09/19 00:11:10;;;;;;;3.17;2.10;;;;;;;17.86;100.00;101712.53;2080129;28;20430;-67
2023/09/19 00:12:13;;;;;;;3.77;2.10;;;;;;;17.98;100.00;101732.88;2081029;28;20422;-67
2023/09/19 00:13:13;;;;;;;4.07;2.17;;;;;;;17.96;100.00;101726.16;2080865;28;20935;-67
2023/09/19 00:14:14;;;;;;;4.10;2.27;;;;;;;17.97;100.00;101721.34;2080434;28;20804;-67
2023/09/19 00:15:17;;;;;;;3.27;2.23;;;;;;;17.83;100.00;101700.22;2080591;28;20191;-67
2023/09/19 00:16:18;;;;;;;2.97;2.10;;;;;;;17.83;100.00;101696.63;2086415;28;20191;-67
2023/09/19 00:17:19;;;;;;;4.30;1.93;;;;;;;17.97;100.00;101716.50;2084545;28;20455;-67
2023/09/19 00:18:24;;;;;;;4.63;2.50;;;;;;;17.33;100.00;101608.72;2080096;28;20466;-67
2023/09/19 00:19:24;;;;;;;4.10;1.87;;;;;;;17.97;100.00;101712.94;2080552;28;20213;-67
2023/09/19 00:20:25;;;;;;;3.57;2.27;;;;;;;17.99;100.00;101714.78;2080561;28;20420;-67
2023/09/19 00:21:26;;;;;;;3.57;2.40;;;;;;;17.98;100.00;101711.69;2080177;28;20323;-67
2023/09/19 00:22:26;;;;;;;5.53;2.10;;;;;;;17.98;100.00;101722.91;2081069;28;20235;-67
2023/09/19 00:23:28;;;;;;;2.93;2.03;;;;;;;18.00;100.00;101715.59;2080806;28;20446;-67
2023/09/19 00:24:28;;;;;;;3.17;2.00;;;;;;;17.99;100.00;101719.63;2080239;28;20227;-67
2023/09/19 00:25:29;;;;;;;7.37;2.37;;;;;;;18.01;100.00;101722.75;2081635;28;21033;-67
2023/09/19 00:26:32;;;;;;;4.93;2.40;;;;;;;17.51;100.00;101657.75;2080815;28;20337;-67
2023/09/19 00:27:33;;;;;;;3.20;2.20;;;;;;;18.02;100.00;101730.72;2080620;28;20195;-67
2023/09/19 00:28:35;;;;;;;3.33;2.30;;;;;;;18.04;100.00;101728.22;2082529;28;20420;-67
2023/09/19 00:29:35;;;;;;;3.57;2.27;;;;;;;17.96;100.00;101728.97;2086512;28;20426;-67
2023/09/19 00:30:38;;;;;;;3.60;2.17;;;;;;;18.02;100.00;101730.72;2080654;28;21021;-67
2023/09/19 00:31:39;;;;;;;3.97;2.20;;;;;;;18.02;100.00;101736.34;2080476;28;20214;-67
2023/09/19 00:32:41;;;;;;;4.00;2.27;;;;;;;18.01;100.00;101733.97;2080678;28;20455;-67
2023/09/19 00:33:41;;;;;;;5.60;2.20;;;;;;;18.02;100.00;101735.53;2080765;28;20531;-67
2023/09/19 00:34:42;;;;;;;3.17;2.10;;;;;;;18.01;100.00;101730.41;2080001;28;20723;-67
2023/09/19 00:35:49;;;;;;;3.23;2.40;;;;;;;18.00;100.00;101729.63;2085373;28;20661;-67
2023/09/19 00:36:52;;;;;;;2.80;2.03;;;;;;;18.01;100.00;101744.44;2084165;28;20203;-67
2023/09/19 00:37:53;;;;;;;2.67;1.97;;;;;;;18.00;100.00;101732.41;2080537;28;20458;-67
2023/09/19 00:38:54;;;;;;;3.13;2.00;;;;;;;17.97;100.00;101727.72;2080528;28;20474;-67
2023/09/19 00:39:54;;;;;;;3.30;2.43;;;;;;;17.96;100.00;101731.00;2080176;28;20177;-67
2023/09/19 00:40:56;;;;;;;3.97;2.33;;;;;;;17.95;100.00;101730.19;2079977;28;20177;-67
2023/09/19 00:41:57;;;;;;;3.40;2.27;;;;;;;17.95;100.00;101741.41;2080962;28;20180;-67
2023/09/19 00:43:01;;;;;;;5.37;2.17;;;;;;;17.91;100.00;101740.75;2080693;28;20439;-67
2023/09/19 00:44:03;;;;;;;3.53;2.40;;;;;;;17.57;100.00;101675.53;2080534;28;20200;-67
2023/09/19 00:45:06;;;;;;;4.17;2.17;;;;;;;17.91;100.00;101731.59;2079469;28;20505;-67
2023/09/19 00:46:07;;;;;;;2.97;2.20;;;;;;;17.88;100.00;101719.25;2080557;28;20443;-67
2023/09/19 00:47:09;;;;;;;3.13;2.10;;;;;;;17.91;100.00;101717.56;2080852;28;20511;-67
2023/09/19 00:48:10;;;;;;;3.43;2.00;;;;;;;17.82;100.00;101709.06;2081008;28;20931;-67
2023/09/19 00:49:10;;;;;;;6.97;2.33;;;;;;;17.89;100.00;101718.00;2086098;28;20528;-67
2023/09/19 00:50:14;;;;;;;3.20;2.20;;;;;;;17.90;100.00;101713.19;2086067;28;20173;-67
2023/09/19 00:51:19;;;;;;;2.87;2.27;;;;;;;17.90;100.00;101716.75;2080099;28;20180;-67
2023/09/19 00:52:19;;;;;;;3.63;2.63;;;;;;;17.89;100.00;101723.63;2080408;28;20845;-67
2023/09/19 00:53:22;;;;;;;3.50;2.27;;;;;;;17.91;100.00;101721.13;2080984;28;20491;-67
2023/09/19 00:54:23;;;;;;;4.07;2.60;;;;;;;17.92;100.00;101720.69;2080495;28;20292;-67
2023/09/19 00:55:25;;;;;;;5.10;2.00;;;;;;;17.93;100.00;101730.66;2080695;28;20443;-67
2023/09/19 00:56:26;;;;;;;3.53;2.27;;;;;;;17.90;100.00;101722.38;2082049;28;20283;-67
2023/09/19 00:57:27;;;;;;;5.07;2.40;;;;;;;17.51;100.00;101664.13;2082047;28;20447;-67
2023/09/19 00:58:32;;;;;;;3.47;2.40;;;;;;;17.96;100.00;101731.00;2082197;28;20988;-67
2023/09/19 00:59:32;;;;;;;4.00;2.43;;;;;;;17.92;100.00;101725.53;2085468;28;20584;-67
2023/09/19 01:00:34;;;;;;;5.47;2.40;;;;;;;17.98;100.00;101726.50;2088082;28;20406;-67
2023/09/19 01:01:34;;;;;;;2.80;2.10;;;;;;;17.98;100.00;101726.50;2082349;28;20222;-67
2023/09/19 01:02:35;;;;;;;5.70;2.37;;;;;;;17.65;100.00;101686.03;2090078;28;20423;-67
2023/09/19 01:03:39;;;;;;;3.37;2.10;;;;;;;17.94;100.00;101723.03;2082473;28;20185;-67
2023/09/19 01:04:41;;;;;;;2.70;1.83;;;;;;;17.90;100.00;101727.22;2082173;28;20655;-67
2023/09/19 01:05:42;;;;;;;3.13;2.07;;;;;;;17.89;100.00;101718.00;2081871;28;20935;-67
2023/09/19 01:06:45;;;;;;;3.47;2.30;;;;;;;17.90;100.00;101722.38;2080810;28;20819;-67
2023/09/19 01:07:48;;;;;;;4.30;2.33;;;;;;;17.35;100.00;101634.25;2086109;28;20442;-67
2023/09/19 01:08:48;;;;;;;3.63;2.40;;;;;;;17.55;100.00;101666.81;2081328;28;20522;-67
2023/09/19 01:09:50;;;;;;;4.80;2.37;;;;;;;17.90;100.00;101724.41;2086594;28;20498;-67
2023/09/19 01:11:00;;;;;;;3.63;2.50;;;;;;;17.88;100.00;101722.81;2081398;28;20173;-67
2023/09/19 01:12:04;;;;;;;4.27;2.47;;;;;;;17.89;100.00;101732.03;2082083;28;20393;-67
2023/09/19 01:13:21;;;;;;;4.40;2.83;;;;;;;17.53;100.00;101676.44;2083379;28;20444;-67
2023/09/19 01:14:40;;;;;;;4.23;2.63;;;;;;;17.83;100.00;101730.25;2087353;28;20868;-67
2023/09/19 01:15:54;;;;;;;2.87;2.20;;;;;;;17.81;100.00;101735.56;2081889;28;20443;-67
2023/09/19 01:17:13;;;;;;;4.93;2.23;;;;;;;17.47;100.00;101693.50;2081415;28;20531;-67
2023/09/19 01:18:23;;;;;;;4.93;2.53;;;;;;;17.74;100.00;101736.59;2087777;28;20869;-67
2023/09/19 01:20:12;;;;;;;6.27;2.30;;;;;;;17.69;100.00;101739.97;2082394;28;20474;-67
2023/09/19 01:21:31;;;;;;;5.30;2.43;;;;;;;17.60;100.00;101737.06;2077779;28;21024;-67
2023/09/19 01:22:54;;;;;;;3.77;2.00;;;;;;;17.53;100.00;101740.13;2081843;28;20431;-67
2023/09/19 01:24:20;;;;;;;4.97;2.20;;;;;;;17.51;100.00;101747.44;2081842;28;20498;-67
2023/09/19 01:26:08;;;;;;;3.30;1.83;;;;;;;17.49;100.00;101741.50;2087283;28;20418;-67
2023/09/19 01:27:43;;;;;;;4.93;2.70;;;;;;;17.47;100.00;101744.75;2081362;28;20946;-67
2023/09/19 01:29:13;;;;;;;4.27;2.33;;;;;;;17.47;100.00;101741.94;2088317;28;20459;-67
2023/09/19 01:30:17;;;;;;;4.37;2.70;;;;;;;17.46;100.00;101734.78;2086003;28;20407;-67
2023/09/19 01:31:19;;;;;;;6.17;2.07;;;;;;;17.45;100.00;101732.44;2081279;28;20413;-67
2023/09/19 01:32:21;;;;;;;2.80;2.10;;;;;;;17.46;100.00;101732.00;2082227;28;20430;-67
2023/09/19 01:33:23;;;;;;;3.30;2.53;;;;;;;17.08;100.00;101670.41;2082248;28;20405;-67
2023/09/19 01:34:23;;;;;;;5.40;2.47;;;;;;;17.50;100.00;101743.06;2089356;28;20446;-67
2023/09/19 01:35:24;;;;;;;4.40;2.20;;;;;;;17.51;100.00;101734.19;2083919;28;20458;-67
2023/09/19 01:36:25;;;;;;;5.97;2.27;;;;;;;17.22;100.00;101699.97;2087096;28;20618;-67
2023/09/19 01:37:25;;;;;;;4.90;2.50;;;;;;;17.55;100.00;101736.88;2085353;28;20272;-67
2023/09/19 01:38:29;;;;;;;6.20;2.67;;;;;;;17.54;100.00;101736.09;2081726;28;20189;-67
2023/09/19 01:39:29;;;;;;;4.07;2.47;;;;;;;17.54;100.00;101738.91;2081606;28;20255;-67
2023/09/19 01:40:30;;;;;;;3.27;2.43;;;;;;;17.52;100.00;101736.53;2082810;28;20485;-67
2023/09/19 01:41:40;;;;;;;3.80;2.70;;;;;;;16.77;100.00;101626.69;2089926;28;20180;-67
2023/09/19 01:43:15;;;;;;;3.40;1.80;;;;;;;17.46;100.00;101753.63;2081790;28;20219;-67
2023/09/19 01:44:24;;;;;;;5.90;2.20;;;;;;;17.38;100.00;101736.22;2081489;28;20455;-67
2023/09/19 01:45:45;;;;;;;3.10;2.17;;;;;;;17.37;100.00;101746.63;2081700;28;20535;-67
2023/09/19 01:46:47;;;;;;;4.13;2.40;;;;;;;17.37;100.00;101746.63;2081644;28;20439;-67
2023/09/19 01:47:56;;;;;;;3.17;2.23;;;;;;;17.38;100.00;101739.03;2085865;28;20442;-67
2023/09/19 01:49:15;;;;;;;3.27;2.20;;;;;;;17.36;100.00;101744.31;2084960;28;20478;-67
2023/09/19 01:50:36;;;;;;;2.90;2.07;;;;;;;17.37;100.00;101746.63;2083657;28;20439;-67
2023/09/19 01:51:58;;;;;;;4.50;2.43;;;;;;;17.39;100.00;101742.66;2081141;28;20490;-67
2023/09/19 01:53:19;;;;;;;3.53;2.03;;;;;;;17.01;100.00;101695.84;2081500;28;20411;-67
2023/09/19 01:54:26;;;;;;;7.77;2.20;;;;;;;17.08;100.00;101701.22;2081626;28;20936;-67
2023/09/19 01:55:29;;;;;;;5.97;2.60;;;;;;;17.40;100.00;101739.38;2081507;28;20431;-67
2023/09/19 01:56:52;;;;;;;2.57;2.10;;;;;;;16.79;100.00;101647.41;2081814;28;20469;-67
2023/09/19 01:58:06;;;;;;;4.63;2.30;;;;;;;17.40;100.00;101744.22;2081709;28;20463;-67
2023/09/19 01:59:13;;;;;;;6.03;2.47;;;;;;;17.36;100.00;101739.47;2080984;28;20475;-67
2023/09/19 02:00:17;;;;;;;5.67;2.33;;;;;;;17.37;100.00;101734.66;2081565;28;20446;-67
2023/09/19 02:01:22;;;;;;;4.27;2.43;;;;;;;16.91;100.00;101671.00;2081165;28;20503;-67
2023/09/19 02:02:24;;;;;;;7.60;2.33;;;;;;;16.80;100.00;101648.19;2081620;28;20397;-67
2023/09/19 02:03:27;;;;;;;6.23;2.33;;;;;;;17.26;100.00;101721.00;2081508;28;20419;-67
2023/09/19 02:04:27;;;;;;;9.70;2.50;;;;;;;17.03;100.00;101693.38;2081413;28;20436;-67
2023/09/19 02:05:28;;;;;;;5.57;2.70;;;;;;;17.30;100.00;101738.47;2081994;28;20427;-67
2023/09/19 02:06:29;;;;;;;4.13;2.67;;;;;;;17.31;100.00;101730.88;2081723;28;20723;-67
2023/09/19 02:07:31;;;;;;;4.70;2.40;;;;;;;16.98;100.00;101684.75;2081615;28;20853;-67
2023/09/19 02:08:33;;;;;;;6.73;2.60;;;;;;;17.33;100.00;101737.59;2081635;28;20185;-67
2023/09/19 02:09:38;;;;;;;5.47;2.97;;;;;;;17.35;100.00;101731.50;2080897;28;20453;-67
2023/09/19 02:10:41;;;;;;;8.10;2.67;;;;;;;17.26;100.00;101715.41;2081540;28;20796;-67
2023/09/19 02:11:41;;;;;;;6.57;2.80;;;;;;;17.36;100.00;101733.09;2080988;28;20447;-67
2023/09/19 02:12:42;;;;;;;11.03;2.83;;;;;;;17.03;100.00;101678.59;2081557;28;20439;-67
2023/09/19 02:13:43;;;;;;;5.17;2.80;;;;;;;17.38;100.00;101727.81;2081416;28;20183;-67
2023/09/19 02:14:43;;;;;;;6.63;3.03;;;;;;;17.39;100.00;101729.41;2081473;28;20177;-67
2023/09/19 02:15:44;;;;;;;5.97;2.87;;;;;;;17.42;100.00;101732.09;2081820;28;20422;-67
2023/09/19 02:16:45;;;;;;;6.97;2.40;;;;;;;17.39;100.00;101725.84;2081470;28;20195;-67
2023/09/19 02:17:46;;;;;;;5.23;2.53;;;;;;;17.12;100.00;101687.84;2081571;28;20221;-67
2023/09/19 02:18:49;;;;;;;3.37;2.47;;;;;;;17.48;100.00;101742.72;2081310;28;20442;-67
2023/09/19 02:19:50;;;;;;;4.53;2.23;;;;;;;17.49;100.00;101744.31;2080779;28;20290;-67
2023/09/19 02:20:51;;;;;;;3.50;2.37;;;;;;;17.45;100.00;101746.44;2080266;28;20971;-67
2023/09/19 02:21:52;;;;;;;4.23;2.30;;;;;;;17.40;100.00;101747.00;2080825;28;20227;-67
2023/09/19 02:22:52;;;;;;;4.03;1.93;;;;;;;17.36;100.00;101742.28;2082780;28;20503;-67
2023/09/19 02:23:53;;;;;;;3.20;2.20;;;;;;;16.88;100.00;101689.50;2089524;28;20421;-67
2023/09/19 02:24:53;;;;;;;4.00;2.50;;;;;;;17.33;100.00;101740.41;2083617;28;20247;-67
2023/09/19 02:25:54;;;;;;;9.90;2.50;;;;;;;16.71;100.00;101654.44;2089831;28;20192;-67
2023/09/19 02:26:55;;;;;;;3.57;2.40;;;;;;;17.36;100.00;101741.50;2083436;28;20193;-67
2023/09/19 02:27:58;;;;;;;3.37;1.97;;;;;;;17.35;100.00;101737.13;2086514;28;20196;-67
2023/09/19 02:28:59;;;;;;;5.13;2.23;;;;;;;16.80;100.00;101656.59;2085122;28;20486;-67
2023/09/19 02:30:03;;;;;;;8.63;3.13;;;;;;;16.76;100.00;101645.47;2080819;28;20825;-67
2023/09/19 02:31:05;;;;;;;7.43;2.83;;;;;;;16.91;100.00;101659.81;2080600;28;20446;-67
2023/09/19 02:32:06;;;;;;;6.73;2.63;;;;;;;17.41;100.00;101740.97;2083187;28;20810;-67
2023/09/19 02:33:08;;;;;;;4.73;2.60;;;;;;;17.40;100.00;101733.78;2088788;28;20410;-67
2023/09/19 02:34:09;;;;;;;7.33;2.77;;;;;;;17.35;100.00;101728.72;2081846;28;20780;-67
2023/09/19 02:35:10;;;;;;;5.00;2.70;;;;;;;17.37;100.00;101731.88;2081484;28;20471;-67
2023/09/19 02:36:11;;;;;;;4.37;2.77;;;;;;;17.37;100.00;101726.25;2081351;28;20865;-67
2023/09/19 02:37:13;;;;;;;5.77;2.87;;;;;;;17.38;100.00;101727.81;2080770;28;20440;-67
2023/09/19 02:38:14;;;;;;;7.67;3.40;;;;;;;17.28;100.00;101723.34;2080751;28;20196;-67
2023/09/19 02:39:15;;;;;;;4.50;2.50;;;;;;;17.22;100.00;101713.97;2081417;28;20464;-67
2023/09/19 02:40:18;;;;;;;5.80;2.57;;;;;;;17.38;100.00;101733.41;2081148;28;20943;-67
2023/09/19 02:41:19;;;;;;;3.97;2.47;;;;;;;17.40;100.00;101738.63;2080235;28;20191;-67
2023/09/19 02:42:19;;;;;;;6.87;2.57;;;;;;;17.42;100.00;101738.94;2081215;28;20412;-67
2023/09/19 02:43:20;;;;;;;7.40;2.67;;;;;;;17.44;100.00;101740.03;2081296;28;20173;-67
2023/09/19 02:44:20;;;;;;;3.93;2.63;;;;;;;17.46;100.00;101739.59;2089329;28;20189;-67
2023/09/19 02:45:22;;;;;;;3.63;2.40;;;;;;;17.30;100.00;101716.06;2096240;28;20229;-67
2023/09/19 02:46:23;;;;;;;5.63;2.70;;;;;;;17.26;100.00;101709.78;2081263;28;20705;-67
2023/09/19 02:47:23;;;;;;;4.73;2.30;;;;;;;17.00;100.00;101673.91;2081338;28;20827;-67
2023/09/19 02:48:25;;;;;;;4.90;2.20;;;;;;;17.06;100.00;101667.28;2080355;28;20552;-67
2023/09/19 02:49:25;;;;;;;4.53;2.30;;;;;;;17.49;100.00;101724.69;2081591;28;20197;-67
2023/09/19 02:50:26;;;;;;;3.23;2.27;;;;;;;17.51;100.00;101731.38;2087434;28;20418;-67
2023/09/19 02:51:26;;;;;;;4.37;2.30;;;;;;;17.50;100.00;101727.03;2080008;28;20177;-67
2023/09/19 02:52:27;;;;;;;3.97;2.67;;;;;;;17.51;100.00;101725.78;2081592;28;20239;-67
2023/09/19 02:53:27;;;;;;;4.00;2.40;;;;;;;17.52;100.00;101725.31;2081308;28;20224;-67
2023/09/19 02:54:28;;;;;;;3.33;2.40;;;;;;;17.51;100.00;101731.38;2081417;28;20191;-67
2023/09/19 02:55:28;;;;;;;3.93;2.30;;;;;;;17.53;100.00;101726.13;2086081;28;20623;-67
2023/09/19 02:56:30;;;;;;;3.20;2.30;;;;;;;17.57;100.00;101728.78;2085006;28;20228;-67
2023/09/19 02:57:33;;;;;;;3.93;2.40;;;;;;;17.58;100.00;101719.94;2080609;28;20181;-67
2023/09/19 02:58:35;;;;;;;6.57;3.27;;;;;;;17.61;100.00;101724.63;2083423;28;20500;-67
2023/09/19 02:59:37;;;;;;;4.73;2.97;;;;;;;17.60;100.00;101723.06;2086596;28;20489;-67
2023/09/19 03:00:38;;;;;;;5.33;3.00;;;;;;;17.63;100.00;101724.16;2081171;28;20429;-67
2023/09/19 03:01:38;;;;;;;6.03;3.07;;;;;;;17.56;100.00;101716.03;2080275;28;20419;-67
2023/09/19 03:02:41;;;;;;;4.67;2.53;;;;;;;17.67;100.00;101723.59;2081078;28;20650;-67
2023/09/19 03:03:41;;;;;;;7.93;3.33;;;;;;;17.67;100.00;101720.78;2081035;28;20249;-67
2023/09/19 03:04:42;;;;;;;6.33;2.80;;;;;;;17.68;100.00;101719.53;2080944;28;21051;-67
2023/09/19 03:05:46;;;;;;;7.17;2.70;;;;;;;17.50;100.00;101684.97;2081103;28;20192;-67
2023/09/19 03:06:48;;;;;;;4.27;2.43;;;;;;;17.71;100.00;101715.06;2085517;28;20188;-67
2023/09/19 03:07:52;;;;;;;4.43;2.53;;;;;;;17.70;100.00;101712.72;2085696;28;20444;-67
2023/09/19 03:08:53;;;;;;;5.07;2.50;;;;;;;17.70;100.00;101710.69;2080986;28;20471;-67
2023/09/19 03:09:53;;;;;;;3.00;2.00;;;;;;;17.73;100.00;101709.00;2080833;28;20426;-67
2023/09/19 03:10:54;;;;;;;3.80;2.53;;;;;;;17.73;100.00;101711.81;2080586;28;20165;-67
2023/09/19 03:11:54;;;;;;;3.50;2.50;;;;;;;17.73;100.00;101704.94;2081023;28;20184;-67
2023/09/19 03:12:55;;;;;;;4.10;2.33;;;;;;;17.75;100.00;101707.31;2080825;28;20246;-67
2023/09/19 03:13:56;;;;;;;3.80;2.57;;;;;;;17.67;100.00;101692.00;2081105;28;20220;-67
2023/09/19 03:14:56;;;;;;;4.30;2.70;;;;;;;17.47;100.00;101679.50;2088468;28;20375;-67
2023/09/19 03:15:58;;;;;;;5.10;2.83;;;;;;;17.77;100.00;101714.03;2088450;28;20542;-67
2023/09/19 03:16:59;;;;;;;2.87;2.30;;;;;;;17.80;100.00;101714.38;2080702;28;20632;-67
2023/09/19 03:18:00;;;;;;;5.17;2.33;;;;;;;17.47;100.00;101660.69;2080659;28;20514;-67
2023/09/19 03:19:00;;;;;;;3.57;2.23;;;;;;;17.83;100.00;101711.44;2080634;28;20463;-67
2023/09/19 03:20:01;;;;;;;3.40;2.37;;;;;;;17.65;100.00;101677.63;2080866;28;20220;-67
2023/09/19 03:21:01;;;;;;;3.43;2.40;;;;;;;17.87;100.00;101708.50;2080900;28;20191;-67
2023/09/19 03:22:02;;;;;;;6.17;3.07;;;;;;;17.85;100.00;101710.97;2081053;28;20185;-67
2023/09/19 03:23:05;;;;;;;3.23;2.37;;;;;;;17.87;100.00;101719.69;2080255;28;20190;-67
2023/09/19 03:24:06;;;;;;;3.30;2.40;;;;;;;17.77;100.00;101698.44;2080994;28;20442;-67
2023/09/19 03:25:11;;;;;;;4.17;2.17;;;;;;;17.88;100.00;101722.81;2084665;28;20449;-67
2023/09/19 03:26:14;;;;;;;5.90;2.47;;;;;;;17.88;100.00;101722.06;2085046;28;20276;-67
2023/09/19 03:27:15;;;;;;;3.40;1.97;;;;;;;17.83;100.00;101722.66;2080966;28;20497;-67
2023/09/19 03:28:16;;;;;;;5.10;1.97;;;;;;;17.79;100.00;101719.19;2080843;28;20804;-67
2023/09/19 03:29:17;;;;;;;4.73;2.00;;;;;;;17.41;100.00;101662.50;2082157;28;20454;-67
2023/09/19 03:30:17;;;;;;;3.30;2.20;;;;;;;17.80;100.00;101719.97;2088908;28;20619;-67
2023/09/19 03:31:18;;;;;;;3.83;2.10;;;;;;;17.80;100.00;101726.34;2080774;28;20204;-67
2023/09/19 03:32:19;;;;;;;3.67;2.20;;;;;;;17.70;100.00;101705.06;2080211;28;20192;-67
2023/09/19 03:33:20;;;;;;;3.30;2.30;;;;;;;17.83;100.00;101717.03;2079693;28;20241;-67
2023/09/19 03:34:20;;;;;;;4.40;2.90;;;;;;;17.81;100.00;101718.72;2081112;28;20189;-67
2023/09/19 03:35:21;;;;;;;3.77;2.50;;;;;;;17.83;100.00;101711.44;2080905;28;20195;-67
2023/09/19 03:36:21;;;;;;;3.93;2.40;;;;;;;17.83;100.00;101715.00;2080959;28;20203;-67
2023/09/19 03:37:22;;;;;;;3.90;2.70;;;;;;;17.83;100.00;101715.00;2080917;28;20369;-67
2023/09/19 03:38:22;;;;;;;5.80;2.57;;;;;;;17.86;100.00;101718.16;2086091;28;20180;-66
2023/09/19 03:39:23;;;;;;;5.23;2.40;;;;;;;17.88;100.00;101710.84;2088474;28;20310;-67
2023/09/19 03:40:25;;;;;;;3.70;2.20;;;;;;;17.37;100.00;101633.78;2089195;28;20180;-67
2023/09/19 03:41:25;;;;;;;3.43;2.40;;;;;;;17.36;100.00;101626.63;2081388;28;20944;-67
2023/09/19 03:42:26;;;;;;;3.43;2.30;;;;;;;17.92;100.00;101719.13;2081056;28;20457;-67
2023/09/19 03:43:27;;;;;;;2.80;2.03;;;;;;;17.81;100.00;101702.66;2080370;28;20216;-67
2023/09/19 03:44:27;;;;;;;5.17;2.50;;;;;;;17.88;100.00;101713.66;2080439;28;20312;-67
2023/09/19 03:45:27;;;;;;;5.13;2.53;;;;;;;17.90;100.00;101718.81;2080886;28;20184;-66
2023/09/19 03:46:28;;;;;;;3.77;2.27;;;;;;;17.88;100.00;101717.22;2081001;28;20177;-67
2023/09/19 03:47:29;;;;;;;4.10;2.40;;;;;;;17.84;100.00;101701.78;2081176;28;20180;-67
2023/09/19 03:48:29;;;;;;;3.93;2.70;;;;;;;17.86;100.00;101707.69;2083128;28;20199;-67
2023/09/19 03:49:30;;;;;;;4.30;2.57;;;;;;;17.91;100.00;101717.56;2084007;28;20189;-67
2023/09/19 03:50:33;;;;;;;7.57;2.70;;;;;;;17.92;100.00;101717.09;2083362;28;20207;-67
2023/09/19 03:51:34;;;;;;;4.50;2.50;;;;;;;17.92;100.00;101717.88;2080505;28;20188;-66
2023/09/19 03:52:34;;;;;;;5.10;2.63;;;;;;;17.92;100.00;101708.69;2081366;28;20447;-68
2023/09/19 03:53:35;;;;;;;4.87;2.30;;;;;;;17.25;100.00;101603.78;2085497;28;20551;-67
2023/09/19 03:54:35;;;;;;;3.77;2.63;;;;;;;17.93;100.00;101704.66;2080313;28;20172;-68
2023/09/19 03:55:35;;;;;;;5.00;2.67;;;;;;;17.58;100.00;101647.81;2086202;28;20255;-66
2023/09/19 03:56:36;;;;;;;3.57;2.33;;;;;;;17.93;100.00;101699.03;2080482;28;20333;-68
2023/09/19 03:57:37;;;;;;;3.27;1.73;;;;;;;18.23;100.00;101677.88;2082608;28;20203;-67
2023/09/19 03:58:39;;;;;;;3.27;1.80;;;;;;;19.15;100.00;101704.63;2081440;28;20652;-66
2023/09/19 03:59:42;;;;;;;2.83;1.80;;;;;;;19.63;100.00;101702.94;2080223;28;20575;-65
2023/09/19 04:00:43;;;;;;;3.50;1.80;;;;;;;20.10;100.00;101700.44;2084958;28;20431;-63
2023/09/19 04:01:43;;;;;;;9.43;2.40;;;;;;;20.32;100.00;101701.78;2084083;28;20446;-62
2023/09/19 04:02:45;;;;;;;8.87;2.40;;;;;;;20.42;100.00;101700.50;2080109;28;20662;-65
2023/09/19 04:03:47;;;;;;;4.73;1.77;;;;;;;20.61;100.00;101693.56;2080044;28;20256;-74
2023/09/19 04:04:54;;;;;;;7.93;2.30;;;;;;;21.13;100.00;101692.22;2083289;28;20444;-69
2023/09/19 04:05:54;;;;;;;6.13;2.80;;;;;;;20.89;100.00;101615.31;2082426;28;20426;-63
2023/09/19 04:06:55;;;;;;;3.67;2.50;;;;;;;21.66;100.00;101687.44;2080499;28;20455;-64
2023/09/19 04:07:55;;;;;;;4.27;2.00;;;;;;;21.90;100.00;101680.47;2081695;28;20318;-66
2023/09/19 04:08:57;;;;;;;9.07;2.87;;;;;;;22.21;100.00;101680.78;2080343;28;20701;-64
2023/09/19 04:09:57;;;;;;;10.10;2.13;;;;;;;22.39;100.00;101679.78;2085595;28;20819;-73
2023/09/19 04:10:58;;;;;;;3.40;2.17;;;;;;;21.89;100.00;101599.13;2082534;28;20640;-64
2023/09/19 04:11:58;;;;;;;4.30;2.70;;;;;;;22.44;100.00;101679.94;2079626;28;20201;-65
2023/09/19 04:12:59;;;;;;;4.77;2.33;;;;;;;22.40;100.00;101673.66;2080049;28;20723;-67
2023/09/19 04:14:03;;;;;;;4.20;1.97;;;;;;;22.15;100.00;101633.97;2078869;28;20189;-75
2023/09/19 04:15:08;;;;;;;3.20;2.20;;;;;;;22.10;100.00;101601.53;2078346;28;20296;-73
2023/09/19 04:16:09;;;;;;;6.33;2.40;;;;;;;22.48;100.00;101629.66;2080489;28;20169;-67
2023/09/19 04:17:10;;;;;;;3.80;1.90;;;;;;;22.55;100.00;101622.81;2087427;28;20180;-71
2023/09/19 04:18:11;;;;;;;3.63;2.30;;;;;;;22.31;100.00;101586.22;2080242;28;20274;-66
2023/09/19 04:19:11;;;;;;;3.80;2.10;;;;;;;23.05;100.00;101667.50;2080278;28;20228;-64
2023/09/19 04:20:15;;;;;;;3.87;2.07;;;;;;;22.95;100.00;101663.25;2080323;28;20189;-65
2023/09/19 04:21:16;;;;;;;3.53;1.90;;;;;;;23.02;100.00;101665.63;2083811;28;20192;-69
2023/09/19 04:22:16;;;;;;;4.20;1.80;;;;;;;23.07;100.00;101666.97;2085053;28;20189;-68
2023/09/19 04:23:17;;;;;;;6.97;2.00;;;;;;;22.83;100.00;101626.81;2080112;28;20169;-68
2023/09/19 04:24:19;;;;;;;2.33;1.80;;;;;;;23.09;100.00;101664.44;2079569;28;20196;-68
2023/09/19 04:25:20;;;;;;;4.57;1.93;;;;;;;22.90;100.00;101632.06;2084041;28;20202;-65
2023/09/19 04:26:21;;;;;;;3.63;2.43;;;;;;;23.13;100.00;101665.78;2079780;28;20181;-65
2023/09/19 04:27:22;;;;;;;3.70;1.93;;;;;;;22.75;100.00;101594.59;2078953;28;20196;-65
2023/09/19 04:28:24;;;;;;;4.57;2.20;;;;;;;23.14;100.00;101663.75;2079214;28;20201;-65
2023/09/19 04:29:26;;;;;;;3.07;1.73;;;;;;;22.95;100.00;101623.66;2086189;28;20355;-61
2023/09/19 04:30:26;;;;;;;4.77;2.30;;;;;;;23.09;100.00;101636.94;2084023;28;20192;-62
2023/09/19 04:31:27;;;;;;;4.40;2.30;;;;;;;23.24;100.00;101662.38;2085187;28;20210;-62
2023/09/19 04:32:29;;;;;;;3.77;2.30;;;;;;;23.28;100.00;101674.25;2089208;28;20176;-64
2023/09/19 04:33:30;;;;;;;5.77;2.10;;;;;;;23.31;100.00;101654.22;2081625;28;20633;-74
2023/09/19 04:34:30;;;;;;;6.67;3.73;;;;;;;23.27;100.00;101661.34;2079535;28;20232;-69
2023/09/19 04:35:31;;;;;;;6.07;3.50;;;;;;;22.66;100.00;101594.72;2087027;28;20210;-66
2023/09/19 04:36:32;;;;;;;8.60;3.70;;;;;;;22.70;100.00;101627.16;2082465;28;20271;-69
2023/09/19 04:37:33;;;;;;;5.77;3.60;;;;;;;22.71;100.00;101656.97;2079622;28;20588;-69
2023/09/19 04:38:33;;;;;;;7.97;3.53;;;;;;;22.50;100.00;101658.19;2079466;28;20324;-69
2023/09/19 04:39:34;;;;;;;6.57;3.93;;;;;;;22.33;100.00;101662.78;2087970;28;20192;-66
2023/09/19 04:40:35;;;;;;;7.80;4.07;;;;;;;21.80;100.00;101602.81;2084169;28;20196;-66
2023/09/19 04:41:36;;;;;;;7.30;4.60;;;;;;;21.62;100.00;101607.84;2074576;28;20184;-66
2023/09/19 04:42:37;;;;;;;8.70;4.17;;;;;;;21.87;100.00;101664.53;2086679;28;20259;-66
2023/09/19 04:43:37;;;;;;;9.10;4.73;;;;;;;21.73;100.00;101673.75;2087242;28;20220;-67
2023/09/19 04:44:38;;;;;;;6.80;4.67;;;;;;;21.62;100.00;101669.91;2086449;28;20195;-70
2023/09/19 04:45:42;;;;;;;7.00;4.63;;;;;;;21.51;100.00;101669.69;2088883;28;20191;-67
2023/09/19 04:46:42;;;;;;;6.53;4.10;;;;;;;21.22;100.00;101641.41;2083184;28;20314;-66
2023/09/19 04:47:43;;;;;;;9.73;3.53;;;;;;;20.95;100.00;101614.22;2077496;28;20195;-66
2023/09/19 04:48:44;;;;;;;5.60;3.40;;;;;;;21.21;100.00;101657.56;2079092;28;20192;-66
2023/09/19 04:49:44;;;;;;;6.90;3.17;;;;;;;20.81;100.00;101611.28;2078236;28;20784;-65
2023/09/19 04:50:45;;;;;;;5.03;2.87;;;;;;;21.03;100.00;101668.94;2081549;28;20188;-66